Home > Products > Valid Products > TAF

000
FTUS41 KALY 311759 CCA
TAFPOU
TAF COR
KPOU 311759Z 3118/0118 28010KT P6SM SCT080
     FM312300 27003KT P6SM SKC
     FM010400 00000KT P6SM SCT100
     FM011500 27005KT P6SM BKN070=



000
FTUS41 KALY 311720
TAFALB
TAF
KALB 311720Z 3118/0118 29012G20KT P6SM SCT050
     FM312300 28006KT P6SM SKC
     FM010400 18004KT P6SM SCT050 SCT100
     FM011400 28010KT P6SM BKN050=



000
FTUS41 KALY 311720
TAFPOU
TAF
KPOU 311720Z 3118/0118 30008KT P6SM SKC
     FM312300 27003KT P6SM SKC
     FM010400 00000KT P6SM SCT100
     FM011500 27005KT P6SM BKN070=



000
FTUS41 KALY 311720
TAFGFL
TAF
KGFL 311720Z 3118/0118 30010KT P6SM SCT060
     FM312300 22005KT P6SM SKC
     FM010300 00000KT P6SM SCT050 SCT100
     FM011500 21007KT P6SM BKN050=



000
FTUS41 KALY 311558 AAA
TAFGFL
TAF AMD
KGFL 311558Z 3116/0112 29013KT P6SM SCT060
     FM312300 VRB05KT P6SM SKC
     FM010300 VRB02KT P6SM BKN150
     FM010800 VRB03KT P6SM BKN120=



000
FTUS41 KALY 311558 AAA
TAFGFL
TAF AMD
KGFL 311558Z 3116/0112 29013KT P6SM SCT060
     FM312300 VRB05KT P6SM SKC
     FM010300 VRB02KT P6SM BKN150
     FM010800 VRB03KT P6SM BKN120=



000
FTUS41 KALY 311120
TAFGFL
TAF
KGFL 311120Z 3112/0112 00000KT P6SM SKC
     FM311400 24006KT P6SM SCT070
     FM311700 26010G16KT P6SM SCT070
     FM312300 VRB03KT P6SM SKC
     FM010300 VRB02KT P6SM BKN150
     FM010800 VRB03KT P6SM BKN120=



000
FTUS41 KALY 311120
TAFPOU
TAF
KPOU 311120Z 3112/0112 00000KT P6SM SKC
     FM311400 27008KT P6SM FEW070
     FM312200 VRB03KT P6SM SKC
     FM010500 00000KT P6SM BKN150=



000
FTUS41 KALY 311120
TAFALB
TAF
KALB 311120Z 3112/0112 26008KT P6SM FEW080
     FM311400 27008G14KT P6SM FEW080
     FM311700 29012G20KT P6SM FEW080
     FM312300 29006KT P6SM SKC
     FM010400 VRB02KT P6SM BKN150
     FM011000 18005KT P6SM BKN120=



000
FTUS41 KALY 310537
TAFGFL
TAF
KGFL 310537Z 3106/0106 25004KT P6SM FEW070
      TEMPO 3108/3110 3SM BR
     FM311400 24008KT P6SM SCT060
     FM311700 26010G15KT P6SM SCT060
     FM312300 VRB03KT P6SM SKC
     FM010300 VRB02KT P6SM BKN150=



000
FTUS41 KALY 310537
TAFPOU
TAF
KPOU 310537Z 3106/0106 VRB02KT P6SM SKC
      TEMPO 3106/3108 2SM BR
     FM311400 27008KT P6SM FEW060
     FM312200 VRB03KT P6SM SKC
     FM010500 00000KT P6SM BKN150=



000
FTUS41 KALY 310537
TAFALB
TAF
KALB 310537Z 3106/0106 24005KT P6SM SCT070
     FM311400 28008G14KT P6SM FEW060
     FM311700 29012G18KT P6SM FEW060
     FM312300 29005KT P6SM SKC
     FM010400 VRB02KT P6SM BKN150=



000
FTUS41 KALY 310406 AAB
TAFPOU
TAF AMD
KPOU 310406Z 3104/3124 00000KT 2SM BR SCT002
      TEMPO 3104/3108 1/2SM FG VV002
     FM311100 27008KT P6SM SCT040
     FM312200 VRB03KT P6SM SCT050=



000
FTUS41 KALY 310253 AAA
TAFPOU
TAF AMD
KPOU 310253Z 3103/3124 VRB03KT P6SM BKN060
     FM310800 00000KT 3SM BR SCT008
     FM311100 27008KT P6SM SCT040
     FM312200 VRB03KT P6SM SCT050=



000
FTUS41 KALY 302337
TAFPOU
TAF
KPOU 302337Z 3100/3124 VRB03KT P6SM SKC
     FM310800 00000KT 3SM BR SCT008
     FM311100 27008KT P6SM SCT040
     FM312200 VRB03KT P6SM SCT050=



000
FTUS41 KALY 302337
TAFALB
TAF
KALB 302337Z 3100/3124 29008KT P6SM SCT050
     FM310900 00000KT P6SM MIFG SKC
     FM311100 24008KT P6SM SCT035
     FM311600 29010G20KT P6SM SCT045
     FM312300 29005KT P6SM SKC=



000
FTUS41 KALY 302337
TAFGFL
TAF
KGFL 302337Z 3100/3124 27005KT P6SM SKC
     FM310600 00000KT 2SM BR SCT008
     FM311100 24008KT P6SM SCT030
     FM311600 27008G18KT P6SM SCT045
     FM312200 VRB03KT P6SM SKC=



000
FTUS41 KALY 302303 AAD
TAFGFL
TAF AMD
KGFL 302303Z 3023/3118 27009KT P6SM FEW050
     FM310000 VRB03KT P6SM FEW050 WS020/27025KT
     FM310800 00000KT 2SM BR SCT015
     FM311200 23009G15KT P6SM SCT030 BKN060=



000
FTUS41 KALY 302303 AAD
TAFGFL
TAF AMD
KGFL 302303Z 3023/3118 27009KT P6SM FEW050
     FM310000 VRB03KT P6SM FEW050 WS020/27025KT
     FM310800 00000KT 2SM BR SCT015
     FM311200 23009G15KT P6SM SCT030 BKN060=



000
FTUS41 KALY 301956 AAC
TAFALB
TAF AMD
KALB 301956Z 3020/3118 29010G15KT P6SM FEW030 SCT060 BKN250
     FM310000 25004KT P6SM SCT050
     FM310900 VRB03KT 5SM BR SCT010
     FM311100 28009G15KT P6SM SCT025 BKN050=



000
FTUS41 KALY 301956 AAC
TAFALB
TAF AMD
KALB 301956Z 3020/3118 29010G15KT P6SM FEW030 SCT060 BKN250
     FM310000 25004KT P6SM SCT050
     FM310900 VRB03KT 5SM BR SCT010
     FM311100 28009G15KT P6SM SCT025 BKN050=



000
FTUS41 KALY 301942 AAB
TAFALB
TAF AMD
KALB 301942Z 3020/3118 26012G17KT P6SM VCSH SCT025 BKN060
     FM302030 27010G15KT P6SM SCT060 BKN250
     FM310000 23004KT P6SM SCT050 WS020/27025KT
     FM310900 VRB03KT 5SM BR SCT010
     FM311100 28009G15KT P6SM SCT025 BKN050=



000
FTUS41 KALY 301905 AAC
TAFGFL
TAF AMD
KGFL 301905Z 3019/3118 18008G15KT P6SM VCSH SCT025 BKN050
     FM302100 23012KT P6SM SCT070
     FM310000 VRB03KT P6SM FEW050 WS020/27025KT
     FM310800 00000KT 2SM BR SCT015
     FM311200 23009G15KT P6SM SCT030 BKN060=



000
FTUS41 KALY 301905 AAC
TAFGFL
TAF AMD
KGFL 301905Z 3019/3118 18008G15KT P6SM VCSH SCT025 BKN050
     FM302100 23012KT P6SM SCT070
     FM310000 VRB03KT P6SM FEW050 WS020/27025KT
     FM310800 00000KT 2SM BR SCT015
     FM311200 23009G15KT P6SM SCT030 BKN060=



000
FTUS41 KALY 301813 AAB
TAFGFL
TAF AMD
KGFL 301813Z 3018/3118 20008G15KT P6SM VCSH SCT025 BKN050
      TEMPO 3018/3019 1/2SM +SHRA FG BKN025 OVC040
     FM302100 23012G20KT P6SM SCT070
     FM310000 VRB03KT P6SM FEW050 WS020/27025KT
     FM310800 00000KT 2SM BR SCT015
     FM311200 23009G15KT P6SM SCT030 BKN060=



000
FTUS41 KALY 301758 AAA
TAFGFL
TAF AMD
KGFL 301758Z 3018/3118 20008G15KT P6SM VCSH SCT025 BKN050
      TEMPO 3018/3019 2SM SHRA BR BKN025 OVC040
     FM302100 23012G20KT P6SM SCT070
     FM310000 VRB03KT P6SM FEW050 WS020/27025KT
     FM310800 00000KT 2SM BR SCT015
     FM311200 23009G15KT P6SM SCT030 BKN060=



000
FTUS41 KALY 301758 AAA
TAFGFL
TAF AMD
KGFL 301758Z 3018/3118 20008G15KT P6SM VCSH SCT025 BKN050
      TEMPO 3018/3019 2SM SHRA BR BKN025 OVC040
     FM302100 23012G20KT P6SM SCT070
     FM310000 VRB03KT P6SM FEW050 WS020/27025KT
     FM310800 00000KT 2SM BR SCT015
     FM311200 23009G15KT P6SM SCT030 BKN060=



000
FTUS41 KALY 301757 AAA
TAFALB
TAF AMD
KALB 301757Z 3018/3118 21006KT P6SM VCSH SCT030 BKN060 OVC250
      TEMPO 3018/3019 2SM SHRA BR BKN025 OVC040
     FM302100 25012G20KT P6SM VCSH BKN060
     FM310000 23004KT P6SM SCT050 WS020/27025KT
     FM310900 VRB03KT 5SM BR SCT010
     FM311100 28009G15KT P6SM SCT025 BKN050=



000
FTUS41 KALY 301757 AAA
TAFALB
TAF AMD
KALB 301757Z 3018/3118 21006KT P6SM VCSH SCT030 BKN060 OVC250
      TEMPO 3018/3019 2SM SHRA BR BKN025 OVC040
     FM302100 25012G20KT P6SM VCSH BKN060
     FM310000 23004KT P6SM SCT050 WS020/27025KT
     FM310900 VRB03KT 5SM BR SCT010
     FM311100 28009G15KT P6SM SCT025 BKN050=



000
FTUS41 KALY 301732
TAFPOU
TAF
KPOU 301732Z 3018/3118 17008KT P6SM VCSH SCT025 BKN045 OVC120
      TEMPO 3018/3020 VRB15G25KT 1 1/2SM +TSRA BR SCT010 OVC020CB
     FM302200 25009KT P6SM SCT045 BKN110 OVC250
     FM310300 VRB03KT P6SM SCT045 SCT250
     FM310600 VRB03KT 4SM BR FEW040
     FM311100 28009G15KT P6SM SCT030 SCT060=



000
FTUS41 KALY 301732
TAFALB
TAF
KALB 301732Z 3018/3118 19011KT P6SM VCSH SCT030 BKN060 OVC250
     FM302100 25012G20KT P6SM VCSH BKN060
     FM310000 23004KT P6SM SCT050 WS020/27025KT
     FM310900 VRB03KT 5SM BR SCT010
     FM311100 28009G15KT P6SM SCT025 BKN050=



000
FTUS41 KALY 301732
TAFALB
TAF
KALB 301732Z 3018/3118 19011KT P6SM VCSH SCT030 BKN060 OVC250
     FM302100 25012G20KT P6SM VCSH BKN060
     FM310000 23004KT P6SM SCT050 WS020/27025KT
     FM310900 VRB03KT 5SM BR SCT010
     FM311100 28009G15KT P6SM SCT025 BKN050=



000
FTUS41 KALY 301732
TAFPOU
TAF
KPOU 301732Z 3018/3118 17008KT P6SM VCSH SCT025 BKN045 OVC120
      TEMPO 3018/3020 VRB15G25KT 1 1/2SM +TSRA BR SCT010 OVC020CB
     FM302200 25009KT P6SM SCT045 BKN110 OVC250
     FM310300 VRB03KT P6SM SCT045 SCT250
     FM310600 VRB03KT 4SM BR FEW040
     FM311100 28009G15KT P6SM SCT030 SCT060=



000
FTUS41 KALY 301732
TAFGFL
TAF
KGFL 301732Z 3018/3118 20005G10KT P6SM VCSH SCT025 BKN050
     FM302100 23012G20KT P6SM SCT070
     FM310000 VRB03KT P6SM FEW050 WS020/27025KT
     FM310800 00000KT 2SM BR SCT015
     FM311200 23009G15KT P6SM SCT030 BKN060=



000
FTUS41 KALY 301605 AAB
TAFPOU
TAF AMD
KPOU 301605Z 3016/3112 17008KT P6SM SCT025 BKN035
      TEMPO 3016/3017 BKN025 OVC035
     FM301700 18010KT P6SM VCTS BKN025 OVC040CB
      TEMPO 3017/3020 VRB15G25KT 1 1/2SM +SHRA BR SCT008 OVC015
     FM302000 VRB03KT P6SM SCT045
     FM310900 VRB02KT 3SM BR SCT002=



000
FTUS41 KALY 301605 AAB
TAFPOU
TAF AMD
KPOU 301605Z 3016/3112 17008KT P6SM SCT025 BKN035
      TEMPO 3016/3017 BKN025 OVC035
     FM301700 18010KT P6SM VCTS BKN025 OVC040CB
      TEMPO 3017/3020 VRB15G25KT 1 1/2SM +SHRA BR SCT008 OVC015
     FM302000 VRB03KT P6SM SCT045
     FM310900 VRB02KT 3SM BR SCT002=



000
FTUS41 KALY 301602 AAA
TAFALB
TAF AMD
KALB 301602Z 3016/3112 17010G15KT P6SM VCSH SCT035 BKN250
     FM301700 17008KT P6SM VCTS BKN035 OVC070CB
      TEMPO 3017/3019 1 1/2SM +SHRA BR SCT008 OVC015
     FM301900 26007KT P6SM BKN045
     FM310000 23004KT P6SM FEW045=



000
FTUS41 KALY 301559 AAA
TAFGFL
TAF AMD
KGFL 301559Z 3016/3112 17010G15KT P6SM VCTS SCT025 BKN035CB
      TEMPO 3016/3019 VRB15G25KT 1 1/2SM +TSRA BR BKN025 OVC035CB
     FM301900 23005KT P6SM BKN045
     FM310000 VRB03KT P6SM FEW045
     FM310800 VRB02KT 2SM BR SCT004=



000
FTUS41 KALY 301403 AAA
TAFPOU
TAF AMD
KPOU 301403Z 3014/3112 22006KT P6SM SCT025 BKN035
      TEMPO 3014/3016 BKN025 OVC035
     FM301900 23006KT 3SM SHRA BR VCTS SCT015 OVC040CB
     FM302200 VRB03KT P6SM SCT045
     FM310900 VRB02KT 3SM BR SCT002=



000
FTUS41 KALY 301120
TAFGFL
TAF
KGFL 301120Z 3012/3112 19004KT P6SM SCT070 BKN250
     FM301400 19007KT P6SM VCSH BKN050
     FM301600 20007KT 3SM SHRA BR VCTS SCT015 OVC045CB
     FM301900 23005KT P6SM BKN045
     FM310000 VRB03KT P6SM FEW045
     FM310800 VRB02KT 2SM BR SCT004=



000
FTUS41 KALY 301120
TAFPOU
TAF
KPOU 301120Z 3012/3112 VRB03KT P6SM BKN020
      TEMPO 3012/3014 SCT020 BKN250
     FM301400 22006KT P6SM BKN035
     FM301900 23006KT 3SM SHRA BR VCTS SCT015 OVC040CB
     FM302200 VRB03KT P6SM SCT045
     FM310900 VRB02KT 3SM BR SCT002=



000
FTUS41 KALY 301120
TAFALB
TAF
KALB 301120Z 3012/3112 17008KT P6SM SCT070 BKN250
     FM301500 18009KT P6SM VCSH BKN040
     FM301700 24008KT 3SM SHRA BR VCTS SCT015 OVC050CB
     FM302000 26007KT P6SM BKN045
     FM310000 23004KT P6SM FEW045=



000
FTUS41 KALY 300531
TAFALB
TAF
KALB 300531Z 3006/3106 00000KT P6SM FEW060 SCT250
     FM301000 18005KT P6SM SCT030 BKN150
      TEMPO 3010/3014 BKN030
     FM301600 18009KT P6SM VCSH BKN040
     FM301800 24008KT 6SM -SHRA BR SCT015 OVC040 PROB30 3018/3020
      VRB15G25KT 2SM TSRA OVC015CB
     FM302100 26007KT P6SM BKN045
     FM310100 23004KT P6SM FEW045=



000
FTUS41 KALY 300531
TAFPOU
TAF
KPOU 300531Z 3006/3106 00000KT P6SM SCT250
     FM301000 VRB03KT P6SM SCT025 BKN150
      TEMPO 3010/3014 BKN025
     FM301400 22006KT P6SM BKN035
     FM301800 22007KT P6SM VCSH BKN045
     FM302000 23006KT 6SM -SHRA BR SCT015 OVC040 PROB30 3020/3022
      VRB15G25KT 2SM TSRA OVC015CB
     FM302300 VRB03KT P6SM BKN045
     FM310400 23004KT P6SM SKC=



000
FTUS41 KALY 300531
TAFGFL
TAF
KGFL 300531Z 3006/3106 00000KT P6SM SCT250
      TEMPO 3008/3010 2SM BR BKN003
     FM301100 19004KT P6SM SCT040 BKN120
     FM301500 19007KT P6SM VCSH BKN040
     FM301700 20007KT 6SM -SHRA BR SCT015 OVC040 PROB30 3017/3019
      VRB15G25KT 2SM TSRA OVC015CB
     FM302000 23005KT P6SM BKN045
     FM310000 VRB03KT P6SM FEW045=



000
FTUS41 KALY 292338
TAFPOU
TAF
KPOU 292338Z 3000/3024 26004KT P6SM SKC
     FM300200 00000KT P6SM SKC
     FM300800 18003KT 5SM BR SCT006 BKN015 BKN250
     FM301400 21006KT P6SM SCT015 BKN040
     FM301800 23007KT P6SM VCSH BKN040 BKN150 PROB30 3019/3023 3SM
      -TSRA BR BKN030CB=



000
FTUS41 KALY 292338
TAFALB
TAF
KALB 292338Z 3000/3024 18007KT P6SM FEW060 SCT250
     FM300200 18006KT P6SM FEW250
     FM300900 17005KT 6SM BR SCT020 BKN200
     FM301200 18007KT 6SM BR BKN020 OVC080
     FM301600 18009KT P6SM VCSH BKN040
     FM301900 24008KT 6SM -SHRA BR SCT015 OVC040=



000
FTUS41 KALY 292338
TAFGFL
TAF
KGFL 292338Z 3000/3024 VRB03KT P6SM FEW250
     FM300500 00000KT 6SM BR SCT250
     FM300800 00000KT 1 1/2SM BR FEW005 SCT040 BKN250
     FM301200 18005KT P6SM BKN040
     FM301600 20008KT P6SM VCSH SCT020 OVC040
     FM301900 22009KT 5SM -SHRA BR SCT015 OVC035=



000
FTUS41 KALY 291721
TAFGFL
TAF
KGFL 291721Z 2918/3018 16008KT P6SM FEW060 SCT250
     FM300100 VRB03KT P6SM FEW250
     FM300800 VRB02KT 4SM BR SCT005 BKN040
     FM301200 19005KT P6SM BKN050
     FM301500 20008KT P6SM VCSH BKN050 OVC080=



000
FTUS41 KALY 291721
TAFPOU
TAF
KPOU 291721Z 2918/3018 23004KT P6SM FEW060 SCT250
     FM300100 VRB03KT P6SM FEW250
     FM300800 VRB02KT 5SM BR BKN015 BKN250
     FM301400 21006KT P6SM BKN040=



000
FTUS41 KALY 291721
TAFPOU
TAF
KPOU 291721Z 2918/3018 23004KT P6SM FEW060 SCT250
     FM300100 VRB03KT P6SM FEW250
     FM300800 VRB02KT 5SM BR BKN015 BKN250
     FM301400 21006KT P6SM BKN040=



000
FTUS41 KALY 291721
TAFGFL
TAF
KGFL 291721Z 2918/3018 16008KT P6SM FEW060 SCT250
     FM300100 VRB03KT P6SM FEW250
     FM300800 VRB02KT 4SM BR SCT005 BKN040
     FM301200 19005KT P6SM BKN050
     FM301500 20008KT P6SM VCSH BKN050 OVC080=



000
FTUS41 KALY 291721
TAFALB
TAF
KALB 291721Z 2918/3018 22006KT P6SM FEW060 SCT250
     FM300100 18003KT P6SM FEW250
     FM300900 17006KT P6SM SCT015 BKN200
     FM301600 18009KT P6SM VCSH BKN050 OVC080=



000
FTUS41 KALY 291721
TAFALB
TAF
KALB 291721Z 2918/3018 22006KT P6SM FEW060 SCT250
     FM300100 18003KT P6SM FEW250
     FM300900 17006KT P6SM SCT015 BKN200
     FM301600 18009KT P6SM VCSH BKN050 OVC080=



000
FTUS41 KALY 291122
TAFGFL
TAF
KGFL 291122Z 2912/3012 VRB03KT P6SM SCT250
     FM291700 19005KT P6SM FEW060 SCT250
     FM300100 00000KT P6SM SKC
     FM300800 00000KT 3SM BR SCT005=



000
FTUS41 KALY 291122
TAFPOU
TAF
KPOU 291122Z 2912/3012 VRB02KT P6SM SCT250
     FM291700 23005KT P6SM FEW060 SCT250
     FM300100 00000KT P6SM SKC=



000
FTUS41 KALY 291122
TAFALB
TAF
KALB 291122Z 2912/3012 VRB03KT P6SM BKN250
     FM291700 22006KT P6SM FEW060 SCT250
     FM300100 18003KT P6SM SKC=



000
FTUS41 KALY 291122
TAFPOU
TAF
KPOU 291122Z 2912/3012 VRB02KT P6SM SCT250
     FM291700 23005KT P6SM FEW060 SCT250
     FM300100 00000KT P6SM SKC=



000
FTUS41 KALY 291122
TAFGFL
TAF
KGFL 291122Z 2912/3012 VRB03KT P6SM SCT250
     FM291700 19005KT P6SM FEW060 SCT250
     FM300100 00000KT P6SM SKC
     FM300800 00000KT 3SM BR SCT005=



000
FTUS41 KALY 291122
TAFALB
TAF
KALB 291122Z 2912/3012 VRB03KT P6SM BKN250
     FM291700 22006KT P6SM FEW060 SCT250
     FM300100 18003KT P6SM SKC=



000
FTUS41 KALY 290905 AAA
TAFALB
TAF AMD
KALB 290905Z 2909/3006 VRB02KT P6SM SCT250
      TEMPO 2910/2912 4SM BR BCFG FEW005
     FM291200 19003KT P6SM SCT250
     FM291700 22006KT P6SM FEW060 SCT250
     FM300100 18003KT P6SM SKC=



000
FTUS41 KALY 290535
TAFALB
TAF
KALB 290535Z 2906/3006 18005KT P6SM SCT250
     FM290900 VRB02KT 4SM BR BCFG SCT005
     FM291200 19003KT P6SM SCT250
     FM291700 22006KT P6SM FEW060 SCT250
     FM300100 18003KT P6SM SKC=



000
FTUS41 KALY 290535
TAFPOU
TAF
KPOU 290535Z 2906/3006 00000KT 6SM BR SCT250
     FM290900 00000KT 4SM BR SCT005
      TEMPO 2909/2911 2SM BR BKN005
     FM291300 VRB02KT P6SM SCT250
     FM291700 23005KT P6SM FEW060 SCT250
     FM300100 00000KT P6SM SKC=



000
FTUS41 KALY 290535
TAFGFL
TAF
KGFL 290535Z 2906/3006 00000KT 4SM BR SCT005
      TEMPO 2906/2909 2SM BR BKN005
     FM290900 00000KT 3SM BR SCT004
      TEMPO 2909/2912 3/4SM BR VV004
     FM291300 VRB03KT P6SM SCT200
     FM291700 19005KT P6SM FEW060 SCT250
     FM300100 00000KT P6SM SKC=



000
FTUS41 KALY 282330
TAFPOU
TAF
KPOU 282330Z 2900/2924 VRB03KT P6SM BKN100
     FM290200 00000KT P6SM SCT100
     FM290500 00000KT 6SM BR SKC
     FM290800 00000KT 3SM BR FEW002
     FM291300 VRB03KT P6SM SKC
     FM291700 22005KT P6SM FEW050 FEW250=



000
FTUS41 KALY 282330
TAFGFL
TAF
KGFL 282330Z 2900/2924 VRB03KT P6SM FEW050
     FM290200 00000KT P6SM SKC
     FM290400 00000KT 4SM BR SCT002
     FM290600 00000KT 3/4SM BR BKN002
     FM291300 VRB03KT P6SM SKC
     FM291800 19005KT P6SM FEW050 SCT250=



000
FTUS41 KALY 282330
TAFALB
TAF
KALB 282330Z 2900/2924 VRB03KT P6SM VCSH SCT060 BKN120
     FM290200 00000KT P6SM FEW060 SCT250
     FM290600 00000KT 6SM BR SKC
     FM290900 00000KT 3SM BR SCT005
     FM291300 VRB03KT P6SM SKC
     FM291700 18005KT P6SM FEW050 SCT250=



000
FTUS41 KALY 282251 AAC
TAFALB
TAF AMD
KALB 282251Z 2823/2918 VRB03KT P6SM VCSH BKN070 BKN120
     FM290100 00000KT P6SM FEW070
     FM290900 00000KT 3SM BR FEW005
     FM291400 18005KT P6SM SCT050=



000
FTUS41 KALY 282111 AAB
TAFALB
TAF AMD
KALB 282111Z 2821/2918 05010G16KT P6SM VCSH BKN060 BKN120
     FM282300 VRB06KT P6SM SCT050
     FM290100 00000KT P6SM SKC
     FM290900 00000KT 3SM BR FEW005
     FM291400 18005KT P6SM SCT050=



000
FTUS41 KALY 281957 AAA
TAFALB
TAF AMD
KALB 281957Z 2820/2918 VRB06KT P6SM VCSH SCT050
     FM282100 VRB06KT P6SM SCT050
     FM290100 00000KT P6SM SKC
     FM290900 00000KT 3SM BR FEW005
     FM291400 18005KT P6SM SCT050=



    US Dept of Commerce
    National Oceanic and Atmospheric Administration
    National Weather Service
    1325 East West Highway
    Silver Spring, MD 20910
    Page Author: NWS Internet Services Team
Disclaimer
Information Quality
Credits
Glossary
Privacy Policy
Freedom of Information Act (FOIA)
About Us
Career Opportunities